createdAt,value
2022-08-03T00:00:42.011Z,67.45
2022-08-03T00:03:13.657Z,67.52
2022-08-03T00:06:04.870Z,67.52
2022-08-03T00:08:31.814Z,67.55
2022-08-03T00:11:01.116Z,67.62
2022-08-03T00:13:32.278Z,67.71
2022-08-03T00:16:01.335Z,67.54
2022-08-03T00:18:30.380Z,67.46
2022-08-03T00:20:59.525Z,67.55
2022-08-03T00:23:50.867Z,67.61
2022-08-03T00:26:17.494Z,67.48
2022-08-03T00:28:46.552Z,67.51
2022-08-03T00:31:15.780Z,67.54
2022-08-03T00:33:58.267Z,67.69
2022-08-03T00:36:31.600Z,67.61
2022-08-03T00:39:00.971Z,67.48
2022-08-03T00:41:30.131Z,67.47
2022-08-03T00:43:59.394Z,67.43
2022-08-03T00:46:28.504Z,67.53
2022-08-03T00:48:57.537Z,67.72
2022-08-03T00:51:27.360Z,67.77
2022-08-03T00:53:58.208Z,67.72
2022-08-03T00:56:27.623Z,67.69
2022-08-03T00:58:58.574Z,67.57
2022-08-03T01:01:32.193Z,67.43
2022-08-03T01:04:02.030Z,67.43
2022-08-03T01:06:46.596Z,67.51
2022-08-03T01:09:48.607Z,67.52
2022-08-03T01:12:33.191Z,67.51
2022-08-03T01:15:30.231Z,67.89
2022-08-03T01:18:14.920Z,68.01
2022-08-03T01:20:59.941Z,68.17
2022-08-03T01:23:59.831Z,68.07
2022-08-03T01:27:00.498Z,68.28
2022-08-03T01:30:08.187Z,68.37
2022-08-03T01:33:04.373Z,68.48
2022-08-03T01:35:43.287Z,68.42
2022-08-03T01:38:34.342Z,68.24
2022-08-03T01:41:18.910Z,68.48
2022-08-03T01:44:30.097Z,68.60
2022-08-03T01:47:03.484Z,68.64
2022-08-03T01:49:38.933Z,68.69
2022-08-03T01:52:09.102Z,68.82
2022-08-03T01:54:44.434Z,68.88
2022-08-03T01:57:15.416Z,68.96
2022-08-03T01:59:45.614Z,68.97
2022-08-03T02:02:33.482Z,69.00
2022-08-03T02:05:10.777Z,69.16
2022-08-03T02:07:42.118Z,69.29
2022-08-03T02:10:14.624Z,69.33
2022-08-03T02:12:46.153Z,69.55
2022-08-03T02:15:16.916Z,69.40
2022-08-03T02:17:49.378Z,69.51
2022-08-03T02:20:19.658Z,69.66
2022-08-03T02:22:48.739Z,69.83
2022-08-03T02:25:18.253Z,70.14
2022-08-03T02:27:55.378Z,70.16
2022-08-03T02:30:33.667Z,70.35
2022-08-03T02:33:04.466Z,70.24
2022-08-03T02:35:35.841Z,70.33
2022-08-03T02:38:10.205Z,70.41
2022-08-03T02:40:43.539Z,70.48
2022-08-03T02:43:21.058Z,70.54
2022-08-03T02:45:53.131Z,70.60
2022-08-03T02:48:30.886Z,70.64
2022-08-03T02:51:04.582Z,70.81
2022-08-03T02:53:35.218Z,71.01
2022-08-03T02:56:05.950Z,71.37
2022-08-03T02:58:37.335Z,71.45
2022-08-03T03:01:07.702Z,71.54
2022-08-03T03:03:44.605Z,71.40
2022-08-03T03:06:14.478Z,71.52
2022-08-03T03:08:45.561Z,71.68
2022-08-03T03:11:17.902Z,71.52
2022-08-03T03:13:49.841Z,71.68
2022-08-03T03:16:19.993Z,71.84
2022-08-03T03:18:50.145Z,71.74
2022-08-03T03:21:20.825Z,71.88
2022-08-03T03:23:50.870Z,71.91
2022-08-03T03:26:20.440Z,72.00
2022-08-03T03:28:49.677Z,72.05
2022-08-03T03:31:18.708Z,72.07
2022-08-03T03:33:48.300Z,72.03
2022-08-03T03:36:18.660Z,71.95
2022-08-03T03:38:47.976Z,71.88
2022-08-03T03:41:17.590Z,71.83
2022-08-03T03:43:46.890Z,71.89
2022-08-03T03:46:18.796Z,72.06
2022-08-03T03:48:51.245Z,72.08
2022-08-03T03:51:20.503Z,72.24
2022-08-03T03:54:01.910Z,72.20
2022-08-03T03:56:38.598Z,72.25
2022-08-03T03:59:24.901Z,72.45
2022-08-03T04:01:59.465Z,72.64
2022-08-03T04:04:47.502Z,72.83
2022-08-03T04:07:35.205Z,72.90
2022-08-03T04:10:38.136Z,73.04
2022-08-03T04:13:18.935Z,73.02
2022-08-03T04:15:49.103Z,72.97
2022-08-03T04:18:20.380Z,73.16
2022-08-03T04:21:04.123Z,73.26
2022-08-03T04:23:50.511Z,73.10
2022-08-03T04:26:39.072Z,73.27
2022-08-03T04:29:11.374Z,73.27
2022-08-03T04:31:42.400Z,73.34
2022-08-03T04:34:11.905Z,73.51
2022-08-03T04:36:50.534Z,73.40
2022-08-03T04:39:28.606Z,73.30
2022-08-03T04:42:20.175Z,73.21
2022-08-03T04:45:02.007Z,73.17
2022-08-03T04:47:45.285Z,73.16
2022-08-03T04:50:24.402Z,72.98
2022-08-03T04:53:09.264Z,73.01
2022-08-03T04:55:38.953Z,73.03
2022-08-03T04:58:08.169Z,72.95
2022-08-03T05:00:40.216Z,72.92
2022-08-03T05:03:20.505Z,73.11
2022-08-03T05:06:01.803Z,73.13
2022-08-03T05:08:46.362Z,73.03
2022-08-03T05:11:17.462Z,72.72
2022-08-03T05:13:50.534Z,72.41
2022-08-03T05:16:22.820Z,72.26
2022-08-03T05:18:54.679Z,71.97
2022-08-03T05:21:26.252Z,71.67
2022-08-03T05:24:15.386Z,71.36
2022-08-03T05:26:44.614Z,71.06
2022-08-03T05:29:15.680Z,70.68
2022-08-03T05:31:55.925Z,70.42
2022-08-03T05:34:37.268Z,70.11
2022-08-03T05:37:14.589Z,69.97
2022-08-03T05:39:47.380Z,70.07
2022-08-03T05:42:18.730Z,69.99
2022-08-03T05:44:48.254Z,69.73
2022-08-03T05:47:59.547Z,69.67
2022-08-03T05:50:57.922Z,69.68
2022-08-03T05:53:58.682Z,69.47
2022-08-03T05:56:36.086Z,69.27
2022-08-03T05:59:37.144Z,68.66
2022-08-03T06:02:03.739Z,67.30
2022-08-03T06:04:33.158Z,66.21
2022-08-03T06:07:02.659Z,65.05
2022-08-03T06:10:36.157Z,64.34
2022-08-03T06:12:31.419Z,63.82
2022-08-03T06:15:00.978Z,63.64
2022-08-03T06:17:30.409Z,63.42
2022-08-03T06:20:07.817Z,63.11
2022-08-03T06:22:37.267Z,62.98
2022-08-03T06:25:26.401Z,62.85
2022-08-03T06:28:05.468Z,62.84
2022-08-03T06:30:37.395Z,62.73
2022-08-03T06:33:09.652Z,62.68
2022-08-03T06:35:39.103Z,62.69
2022-08-03T06:38:14.219Z,62.73
2022-08-03T06:40:43.606Z,62.86
2022-08-03T06:43:14.153Z,62.84
2022-08-03T06:45:47.702Z,62.85
2022-08-03T06:48:17.241Z,63.21
2022-08-03T06:50:46.874Z,63.60
2022-08-03T06:53:21.386Z,64.82
2022-08-03T06:55:54.673Z,65.53
2022-08-03T06:58:25.481Z,64.80
2022-08-03T07:00:54.835Z,63.95
2022-08-03T07:03:24.267Z,62.70
2022-08-03T07:05:53.600Z,61.09
2022-08-03T07:08:34.118Z,58.95
2022-08-03T07:11:04.068Z,56.66
2022-08-03T07:13:33.528Z,55.65
2022-08-03T07:16:05.951Z,53.69
2022-08-03T07:18:39.952Z,52.76
2022-08-03T07:21:11.194Z,51.47
2022-08-03T07:23:40.266Z,51.53
2022-08-03T07:26:15.645Z,51.20
2022-08-03T07:28:46.361Z,50.24
2022-08-03T07:31:18.730Z,49.67
2022-08-03T07:33:50.259Z,49.88
2022-08-03T07:36:19.620Z,49.51
2022-08-03T07:38:49.244Z,47.91
2022-08-03T07:41:18.495Z,47.73
2022-08-03T07:43:48.811Z,47.50
2022-08-03T07:46:31.045Z,47.40
2022-08-03T07:49:09.723Z,47.30
2022-08-03T07:51:43.770Z,46.97
2022-08-03T07:54:16.766Z,46.49
2022-08-03T07:56:46.766Z,45.09
2022-08-03T07:59:18.420Z,44.20
2022-08-03T08:01:54.185Z,43.62
2022-08-03T08:04:26.247Z,42.77
2022-08-03T08:06:56.156Z,42.76
2022-08-03T08:09:29.122Z,42.91
2022-08-03T08:11:59.058Z,41.83
2022-08-03T08:14:28.837Z,41.03
2022-08-03T08:16:58.681Z,41.06
2022-08-03T08:19:28.270Z,40.16
2022-08-03T08:22:02.344Z,40.09
2022-08-03T08:24:32.539Z,40.38
2022-08-03T08:27:01.712Z,40.01
2022-08-03T08:29:30.931Z,39.11
2022-08-03T08:32:18.154Z,38.72
2022-08-03T08:34:51.309Z,38.67
2022-08-03T08:37:37.709Z,37.38
2022-08-03T08:40:08.942Z,38.27
2022-08-03T08:42:58.454Z,37.32
2022-08-03T08:45:32.539Z,36.88
2022-08-03T08:48:11.046Z,36.61
2022-08-03T08:50:42.324Z,35.99
2022-08-03T08:53:18.181Z,35.76
2022-08-03T08:56:14.364Z,36.03
2022-08-03T08:59:48.372Z,35.87
2022-08-03T09:02:53.395Z,35.11
2022-08-03T09:05:55.033Z,35.19
2022-08-03T09:08:28.380Z,34.68
2022-08-03T09:10:57.810Z,33.85
2022-08-03T09:13:27.277Z,33.66
2022-08-03T09:16:17.772Z,33.47
2022-08-03T09:18:54.485Z,33.40
2022-08-03T09:21:32.852Z,33.01
2022-08-03T09:24:07.050Z,32.48
2022-08-03T09:26:53.887Z,32.35
2022-08-03T09:29:34.168Z,32.79
2022-08-03T09:32:14.820Z,32.35
2022-08-03T09:34:55.335Z,32.39
2022-08-03T09:38:12.365Z,31.72
2022-08-03T09:40:46.854Z,31.38
2022-08-03T09:43:21.205Z,31.54
2022-08-03T09:46:18.584Z,31.58
2022-08-03T09:48:50.269Z,30.95
2022-08-03T09:51:33.117Z,30.59
2022-08-03T09:56:30.481Z,30.23
2022-08-03T09:59:15.255Z,30.28
2022-08-03T10:01:47.640Z,30.17
2022-08-03T10:04:24.965Z,29.57
2022-08-03T10:07:15.094Z,29.24
2022-08-03T10:10:30.495Z,28.26
2022-08-03T10:12:57.489Z,28.16
2022-08-03T10:16:22.592Z,28.45
2022-08-03T10:18:16.161Z,28.32
2022-08-03T10:21:03.353Z,27.65
2022-08-03T10:23:35.927Z,27.76
2022-08-03T10:26:12.195Z,27.97
2022-08-03T10:28:50.497Z,28.44
2022-08-03T10:31:22.574Z,27.80
2022-08-03T10:33:55.948Z,27.15
2022-08-03T10:36:30.761Z,26.04
2022-08-03T10:39:03.740Z,25.63
2022-08-03T10:41:48.932Z,25.94
2022-08-03T10:44:26.434Z,26.51
2022-08-03T10:47:08.918Z,26.66
2022-08-03T10:49:51.009Z,26.70
2022-08-03T10:52:32.777Z,27.32
2022-08-03T10:56:09.070Z,27.46
2022-08-03T10:58:57.093Z,27.63
2022-08-03T11:01:59.489Z,28.34
2022-08-03T11:04:30.511Z,28.82
2022-08-03T11:07:24.040Z,28.86
2022-08-03T11:09:56.989Z,29.03
2022-08-03T11:12:32.155Z,29.69
2022-08-03T11:15:10.521Z,29.22
2022-08-03T11:17:46.184Z,29.18
2022-08-03T11:20:51.379Z,29.60
2022-08-03T11:24:03.150Z,29.92
2022-08-03T11:26:31.351Z,29.77
2022-08-03T11:29:29.426Z,30.08
2022-08-03T11:31:58.805Z,30.34
2022-08-03T11:34:31.530Z,31.12
2022-08-03T11:37:27.561Z,31.07
2022-08-03T11:40:02.779Z,31.05
2022-08-03T11:42:35.514Z,31.73
2022-08-03T11:45:07.919Z,31.59
2022-08-03T11:47:50.826Z,31.48
2022-08-03T11:50:22.222Z,31.83
2022-08-03T11:53:03.195Z,31.93
2022-08-03T11:56:15.102Z,32.53
2022-08-03T11:59:18.072Z,32.23
2022-08-03T12:02:09.915Z,31.73
2022-08-03T12:05:04.538Z,31.87
2022-08-03T12:08:03.688Z,32.25
2022-08-03T12:10:39.811Z,32.63
2022-08-03T12:14:43.825Z,32.77
2022-08-03T12:16:01.813Z,32.94
2022-08-03T12:18:30.958Z,33.29
2022-08-03T12:21:09.786Z,33.61
2022-08-03T12:23:39.975Z,32.77
2022-08-03T12:26:10.731Z,32.26
2022-08-03T12:28:49.806Z,32.21
2022-08-03T12:31:19.048Z,32.53
2022-08-03T12:34:06.944Z,33.09
2022-08-03T12:36:37.830Z,33.33
2022-08-03T12:39:09.463Z,33.62
2022-08-03T12:41:41.735Z,33.85
2022-08-03T12:44:10.838Z,34.15
2022-08-03T12:46:47.199Z,34.17
2022-08-03T12:49:19.750Z,33.58
2022-08-03T12:52:11.898Z,33.54
2022-08-03T12:54:41.281Z,33.33
2022-08-03T12:57:16.361Z,33.03
2022-08-03T12:59:52.604Z,32.75
2022-08-03T13:02:26.347Z,32.98
2022-08-03T13:04:55.846Z,33.39
2022-08-03T13:07:24.995Z,33.36
2022-08-03T13:09:57.777Z,33.17
2022-08-03T13:12:30.084Z,33.30
2022-08-03T13:15:00.919Z,33.74
2022-08-03T13:17:32.319Z,33.65
2022-08-03T13:20:01.509Z,33.44
2022-08-03T13:22:30.555Z,33.06
2022-08-03T13:25:03.456Z,32.91
2022-08-03T13:28:05.157Z,32.39
2022-08-03T13:30:30.340Z,32.36
2022-08-03T13:33:00.720Z,32.41
2022-08-03T13:35:32.404Z,32.35
2022-08-03T13:38:02.993Z,32.56
2022-08-03T13:40:36.743Z,32.68
2022-08-03T13:43:10.988Z,32.46
2022-08-03T13:45:40.079Z,32.71
2022-08-03T13:48:09.111Z,32.59
2022-08-03T13:50:42.797Z,32.19
2022-08-03T13:53:12.320Z,31.84
2022-08-03T13:55:41.226Z,31.45
2022-08-03T13:58:12.525Z,31.35
2022-08-03T14:00:41.469Z,31.34
2022-08-03T14:03:14.040Z,31.54
2022-08-03T14:05:44.327Z,31.47
2022-08-03T14:08:13.474Z,31.46
2022-08-03T14:10:45.050Z,31.86
2022-08-03T14:13:17.655Z,32.33
2022-08-03T14:15:49.997Z,32.58
2022-08-03T14:18:28.457Z,32.66
2022-08-03T14:21:07.591Z,32.84
2022-08-03T14:23:40.467Z,32.84
2022-08-03T14:26:12.037Z,32.31
2022-08-03T14:28:41.662Z,32.26
2022-08-03T14:32:09.136Z,32.42
2022-08-03T14:34:03.060Z,32.24
2022-08-03T14:36:32.291Z,31.78
2022-08-03T14:39:01.752Z,32.16
2022-08-03T14:41:30.894Z,32.20
2022-08-03T14:44:02.973Z,32.34
2022-08-03T14:46:32.468Z,32.21
2022-08-03T14:50:32.572Z,32.05
2022-08-03T14:51:51.416Z,32.09
2022-08-03T14:54:23.358Z,32.07
2022-08-03T14:56:52.952Z,31.95
2022-08-03T14:59:22.814Z,31.94
2022-08-03T15:02:03.397Z,31.98
2022-08-03T15:04:36.790Z,31.74
2022-08-03T15:07:06.426Z,32.07
2022-08-03T15:09:35.783Z,32.40
2022-08-03T15:12:07.424Z,32.30
2022-08-03T15:14:39.655Z,32.24
2022-08-03T15:17:12.978Z,32.55
2022-08-03T15:20:00.930Z,33.19
2022-08-03T15:22:34.593Z,33.78
2022-08-03T15:26:31.646Z,33.73
2022-08-03T15:28:03.941Z,33.15
2022-08-03T15:30:37.076Z,32.92
2022-08-03T15:33:08.070Z,32.61
2022-08-03T15:35:37.094Z,32.40
2022-08-03T15:38:09.445Z,32.46
2022-08-03T15:40:39.222Z,32.43
2022-08-03T15:43:15.551Z,32.55
2022-08-03T15:45:45.123Z,32.50
2022-08-03T15:48:14.403Z,32.62
2022-08-03T15:50:43.996Z,32.62
2022-08-03T15:53:13.196Z,32.58
2022-08-03T15:55:42.191Z,32.47
2022-08-03T15:59:10.193Z,32.28
2022-08-03T16:01:06.110Z,32.30
2022-08-03T16:03:36.832Z,32.30
2022-08-03T16:06:08.039Z,32.28
2022-08-03T16:08:37.071Z,32.35
2022-08-03T16:11:08.132Z,32.56
2022-08-03T16:14:12.930Z,32.68
2022-08-03T16:16:41.204Z,32.72
2022-08-03T16:19:10.397Z,32.85
2022-08-03T16:21:48.019Z,32.68
2022-08-03T16:24:20.006Z,32.54
2022-08-03T16:27:04.625Z,32.36
2022-08-03T16:29:57.039Z,32.38
2022-08-03T16:32:31.607Z,32.56
2022-08-03T16:35:03.290Z,32.53
2022-08-03T16:37:39.787Z,32.45
2022-08-03T16:40:19.347Z,32.51
2022-08-03T16:42:48.801Z,32.38
2022-08-03T16:45:18.356Z,32.31
2022-08-03T16:47:47.372Z,32.45
2022-08-03T16:50:30.679Z,32.51
2022-08-03T16:53:00.784Z,32.57
2022-08-03T16:55:43.553Z,32.75
2022-08-03T16:58:34.810Z,32.88
2022-08-03T17:01:24.043Z,32.95
2022-08-03T17:04:27.396Z,33.07
2022-08-03T17:07:10.527Z,33.06
2022-08-03T17:09:53.550Z,32.98
2022-08-03T17:12:31.454Z,33.02
2022-08-03T17:15:10.674Z,33.16
2022-08-03T17:18:04.545Z,33.25
2022-08-03T17:20:40.975Z,33.26
2022-08-03T17:23:35.548Z,33.32
2022-08-03T17:26:20.850Z,33.30
2022-08-03T17:28:57.499Z,33.33
2022-08-03T17:31:48.851Z,33.36
2022-08-03T17:34:21.758Z,33.28
2022-08-03T17:37:05.173Z,33.54
2022-08-03T17:39:57.687Z,33.61
2022-08-03T17:42:32.033Z,34.36
2022-08-03T17:45:04.007Z,34.60
2022-08-03T17:47:41.161Z,35.06
2022-08-03T17:50:25.352Z,35.28
2022-08-03T17:53:15.564Z,35.46
2022-08-03T17:56:44.867Z,35.75
2022-08-03T17:59:51.313Z,35.95
2022-08-03T18:03:16.446Z,36.13
2022-08-03T18:06:10.642Z,36.21
2022-08-03T18:09:04.951Z,36.22
2022-08-03T18:12:18.108Z,36.61
2022-08-03T18:14:57.264Z,36.94
2022-08-03T18:18:01.382Z,37.19
2022-08-03T18:20:34.049Z,37.39
2022-08-03T18:23:20.435Z,37.46
2022-08-03T18:26:12.026Z,37.69
2022-08-03T18:28:44.159Z,37.76
2022-08-03T18:32:00.251Z,37.79
2022-08-03T18:34:17.565Z,37.90
2022-08-03T18:36:49.902Z,37.94
2022-08-03T18:39:19.837Z,38.11
2022-08-03T18:41:48.970Z,38.15
2022-08-03T18:44:37.405Z,38.30
2022-08-03T18:47:16.286Z,38.22
2022-08-03T18:50:13.838Z,38.35
2022-08-03T18:53:15.654Z,38.61
2022-08-03T18:56:02.758Z,38.89
2022-08-03T18:59:02.585Z,38.96
2022-08-03T19:01:59.115Z,39.02
2022-08-03T19:04:46.476Z,39.11
2022-08-03T19:07:24.186Z,39.10
2022-08-03T19:10:03.537Z,39.14
2022-08-03T19:12:56.027Z,39.28
2022-08-03T19:15:36.478Z,39.40
2022-08-03T19:18:12.051Z,39.41
2022-08-03T19:20:49.538Z,39.50
2022-08-03T19:23:30.787Z,39.71
2022-08-03T19:26:30.452Z,39.96
2022-08-03T19:29:15.156Z,40.19
2022-08-03T19:31:59.004Z,40.32
2022-08-03T19:34:33.241Z,40.73
2022-08-03T19:37:17.115Z,40.78
2022-08-03T19:39:56.323Z,40.81
2022-08-03T19:42:32.150Z,40.91
2022-08-03T19:45:14.581Z,41.08
2022-08-03T19:48:09.398Z,41.20
2022-08-03T19:50:49.375Z,41.38
2022-08-03T19:53:24.977Z,41.65
2022-08-03T19:56:07.002Z,41.91
2022-08-03T19:58:37.082Z,41.90
2022-08-03T20:01:19.800Z,42.20
2022-08-03T20:03:53.554Z,42.22
2022-08-03T20:06:24.400Z,42.26
2022-08-03T20:08:55.605Z,42.30
2022-08-03T20:11:31.341Z,42.35
2022-08-03T20:14:13.431Z,42.65
2022-08-03T20:16:57.980Z,42.70
2022-08-03T20:19:32.728Z,42.79
2022-08-03T20:22:05.299Z,42.87
2022-08-03T20:24:52.584Z,43.15
2022-08-03T20:27:30.196Z,43.37
2022-08-03T20:30:07.282Z,43.34
2022-08-03T20:32:37.012Z,43.32
2022-08-03T20:35:09.874Z,43.51
2022-08-03T20:37:40.831Z,43.80
2022-08-03T20:40:11.392Z,43.71
2022-08-03T20:42:41.913Z,43.80
2022-08-03T20:45:15.175Z,43.85
2022-08-03T20:48:01.935Z,44.00
2022-08-03T20:50:33.392Z,44.22
2022-08-03T20:53:07.305Z,44.28
2022-08-03T20:56:02.323Z,44.42
2022-08-03T21:06:27.804Z,44.80
2022-08-03T21:10:04.647Z,44.92
2022-08-03T21:13:30.722Z,45.06
2022-08-03T21:16:52.365Z,45.24
2022-08-03T21:20:25.690Z,45.42
2022-08-03T21:23:39.733Z,45.49
2022-08-03T21:26:57.837Z,45.46
2022-08-03T21:29:53.353Z,45.69
2022-08-03T21:32:51.260Z,46.04
2022-08-03T21:36:19.436Z,46.09
2022-08-03T21:39:15.523Z,46.16
2022-08-03T21:41:58.498Z,46.15
2022-08-03T21:44:57.974Z,46.27
2022-08-03T21:48:34.064Z,46.59
2022-08-03T21:51:49.855Z,46.83
2022-08-03T21:54:53.776Z,46.94
2022-08-03T21:58:06.444Z,47.11
2022-08-03T22:01:14.781Z,47.11
2022-08-03T22:04:50.922Z,47.37
2022-08-03T22:07:27.591Z,47.46
2022-08-03T22:10:01.813Z,47.77
2022-08-03T22:12:34.127Z,47.90
2022-08-03T22:15:16.514Z,48.06
2022-08-03T22:18:54.402Z,48.50
2022-08-03T22:22:08.144Z,48.62
2022-08-03T22:25:24.748Z,48.73
2022-08-03T22:36:11.735Z,49.74
2022-08-03T22:38:43.706Z,49.72
2022-08-03T22:41:14.945Z,49.83
2022-08-03T22:43:44.219Z,49.73
2022-08-03T22:46:18.686Z,49.74
2022-08-03T22:48:51.265Z,49.86
2022-08-03T22:51:21.339Z,49.95
2022-08-03T22:53:50.793Z,50.15
2022-08-03T22:56:19.790Z,50.41
2022-08-03T22:58:48.929Z,50.57
2022-08-03T23:01:23.327Z,50.85
2022-08-03T23:04:02.682Z,50.97
2022-08-03T23:06:38.743Z,51.22
2022-08-03T23:09:13.946Z,51.51
2022-08-03T23:11:45.939Z,51.66
2022-08-03T23:14:19.737Z,52.07
2022-08-03T23:16:50.776Z,52.03
2022-08-03T23:19:25.573Z,52.12
2022-08-03T23:22:02.174Z,52.48
2022-08-03T23:24:38.404Z,52.45
2022-08-03T23:27:09.555Z,52.44
2022-08-03T23:29:42.504Z,52.75
2022-08-03T23:32:14.769Z,52.95
2022-08-03T23:35:03.671Z,53.15
2022-08-03T23:37:33.654Z,53.38
2022-08-03T23:40:31.470Z,53.64
2022-08-03T23:43:02.115Z,53.88
2022-08-03T23:45:36.138Z,54.07
2022-08-03T23:48:05.782Z,54.10
2022-08-03T23:50:47.033Z,54.33
2022-08-03T23:53:27.401Z,54.45
2022-08-03T23:56:32.810Z,54.72
2022-08-03T23:59:14.991Z,54.91
